sensor_id;sensor_type;location;lat;lon;timestamp;P1;durP1;ratioP1;P2;durP2;ratioP2
64297;SDS011;50639;53.270;7.956;2022-10-22T00:00:53;186.30;;;15.37;;
64297;SDS011;50639;53.270;7.956;2022-10-22T00:03:19;19.05;;;13.73;;
64297;SDS011;50639;53.270;7.956;2022-10-22T00:05:46;20.48;;;12.38;;
64297;SDS011;50639;53.270;7.956;2022-10-22T00:08:11;22.70;;;13.57;;
64297;SDS011;50639;53.270;7.956;2022-10-22T00:10:37;19.00;;;11.35;;
64297;SDS011;50639;53.270;7.956;2022-10-22T00:13:03;20.88;;;14.02;;
64297;SDS011;50639;53.270;7.956;2022-10-22T00:15:28;19.08;;;13.65;;
64297;SDS011;50639;53.270;7.956;2022-10-22T00:17:54;17.08;;;12.98;;
64297;SDS011;50639;53.270;7.956;2022-10-22T00:20:19;20.20;;;13.15;;
64297;SDS011;50639;53.270;7.956;2022-10-22T00:22:44;25.63;;;14.07;;
64297;SDS011;50639;53.270;7.956;2022-10-22T00:25:10;21.57;;;13.10;;
64297;SDS011;50639;53.270;7.956;2022-10-22T00:27:35;18.93;;;11.37;;
64297;SDS011;50639;53.270;7.956;2022-10-22T00:30:00;20.20;;;12.40;;
64297;SDS011;50639;53.270;7.956;2022-10-22T00:32:26;17.50;;;11.35;;
64297;SDS011;50639;53.270;7.956;2022-10-22T00:34:51;14.23;;;10.88;;
64297;SDS011;50639;53.270;7.956;2022-10-22T00:37:16;19.27;;;12.00;;
64297;SDS011;50639;53.270;7.956;2022-10-22T00:39:41;16.20;;;11.63;;
64297;SDS011;50639;53.270;7.956;2022-10-22T00:42:09;17.85;;;12.25;;
64297;SDS011;50639;53.270;7.956;2022-10-22T00:47:20;17.67;;;10.75;;
64297;SDS011;50639;53.270;7.956;2022-10-22T00:49:46;15.40;;;10.52;;
64297;SDS011;50639;53.270;7.956;2022-10-22T00:52:12;13.45;;;10.50;;
64297;SDS011;50639;53.270;7.956;2022-10-22T00:54:37;17.48;;;9.68;;
64297;SDS011;50639;53.270;7.956;2022-10-22T00:57:03;22.23;;;9.07;;
64297;SDS011;50639;53.270;7.956;2022-10-22T00:59:28;14.82;;;7.22;;
64297;SDS011;50639;53.270;7.956;2022-10-22T01:01:53;12.55;;;8.15;;
64297;SDS011;50639;53.270;7.956;2022-10-22T01:04:19;11.27;;;6.73;;
64297;SDS011;50639;53.270;7.956;2022-10-22T01:06:44;97.13;;;11.00;;
64297;SDS011;50639;53.270;7.956;2022-10-22T01:09:22;26.50;;;10.38;;
64297;SDS011;50639;53.270;7.956;2022-10-22T01:12:00;204.65;;;10.25;;
64297;SDS011;50639;53.270;7.956;2022-10-22T01:17:08;13.10;;;9.07;;
64297;SDS011;50639;53.270;7.956;2022-10-22T01:24:59;14.80;;;8.93;;
64297;SDS011;50639;53.270;7.956;2022-10-22T01:30:13;53.28;;;8.07;;
64297;SDS011;50639;53.270;7.956;2022-10-22T01:32:42;10.45;;;7.03;;
64297;SDS011;50639;53.270;7.956;2022-10-22T01:35:10;17.15;;;9.82;;
64297;SDS011;50639;53.270;7.956;2022-10-22T01:37:41;13.83;;;8.93;;
64297;SDS011;50639;53.270;7.956;2022-10-22T01:40:08;13.93;;;6.97;;
64297;SDS011;50639;53.270;7.956;2022-10-22T01:42:33;16.70;;;8.13;;
64297;SDS011;50639;53.270;7.956;2022-10-22T01:44:59;28.73;;;7.70;;
64297;SDS011;50639;53.270;7.956;2022-10-22T01:55:10;11.98;;;8.27;;
64297;SDS011;50639;53.270;7.956;2022-10-22T01:57:42;12.82;;;9.60;;
64297;SDS011;50639;53.270;7.956;2022-10-22T02:00:08;14.63;;;8.30;;
64297;SDS011;50639;53.270;7.956;2022-10-22T02:02:48;14.10;;;9.13;;
64297;SDS011;50639;53.270;7.956;2022-10-22T02:05:23;13.65;;;7.97;;
64297;SDS011;50639;53.270;7.956;2022-10-22T02:07:58;16.15;;;9.32;;
64297;SDS011;50639;53.270;7.956;2022-10-22T02:10:25;11.55;;;9.45;;
64297;SDS011;50639;53.270;7.956;2022-10-22T02:12:52;17.00;;;10.73;;
64297;SDS011;50639;53.270;7.956;2022-10-22T02:17:44;15.73;;;11.27;;
64297;SDS011;50639;53.270;7.956;2022-10-22T02:20:13;14.02;;;10.13;;
64297;SDS011;50639;53.270;7.956;2022-10-22T02:22:40;19.73;;;11.25;;
64297;SDS011;50639;53.270;7.956;2022-10-22T02:25:08;20.13;;;11.35;;
64297;SDS011;50639;53.270;7.956;2022-10-22T02:27:35;17.10;;;11.30;;
64297;SDS011;50639;53.270;7.956;2022-10-22T02:30:07;18.45;;;12.15;;
64297;SDS011;50639;53.270;7.956;2022-10-22T02:32:34;16.60;;;11.82;;
64297;SDS011;50639;53.270;7.956;2022-10-22T02:35:03;17.00;;;12.65;;
64297;SDS011;50639;53.270;7.956;2022-10-22T02:37:29;16.47;;;11.67;;
64297;SDS011;50639;53.270;7.956;2022-10-22T02:39:55;18.65;;;11.82;;
64297;SDS011;50639;53.270;7.956;2022-10-22T02:42:21;15.88;;;10.68;;
64297;SDS011;50639;53.270;7.956;2022-10-22T02:44:47;16.90;;;11.40;;
64297;SDS011;50639;53.270;7.956;2022-10-22T02:47:12;172.68;;;12.93;;
64297;SDS011;50639;53.270;7.956;2022-10-22T02:49:37;23.03;;;8.37;;
64297;SDS011;50639;53.270;7.956;2022-10-22T02:52:02;10.67;;;8.00;;
64297;SDS011;50639;53.270;7.956;2022-10-22T02:54:28;11.53;;;8.03;;
64297;SDS011;50639;53.270;7.956;2022-10-22T02:56:53;21.40;;;10.27;;
64297;SDS011;50639;53.270;7.956;2022-10-22T02:59:18;15.98;;;10.63;;
64297;SDS011;50639;53.270;7.956;2022-10-22T03:01:43;14.63;;;11.10;;
64297;SDS011;50639;53.270;7.956;2022-10-22T03:04:09;15.60;;;10.57;;
64297;SDS011;50639;53.270;7.956;2022-10-22T03:06:34;20.02;;;12.07;;
64297;SDS011;50639;53.270;7.956;2022-10-22T03:08:59;47.13;;;10.98;;
64297;SDS011;50639;53.270;7.956;2022-10-22T03:11:25;65.37;;;12.97;;
64297;SDS011;50639;53.270;7.956;2022-10-22T03:13:50;101.68;;;11.98;;
64297;SDS011;50639;53.270;7.956;2022-10-22T03:16:15;16.30;;;11.05;;
64297;SDS011;50639;53.270;7.956;2022-10-22T03:18:41;18.35;;;12.00;;
64297;SDS011;50639;53.270;7.956;2022-10-22T03:23:31;23.23;;;11.80;;
64297;SDS011;50639;53.270;7.956;2022-10-22T03:25:57;15.25;;;11.10;;
64297;SDS011;50639;53.270;7.956;2022-10-22T03:28:23;22.38;;;12.43;;
64297;SDS011;50639;53.270;7.956;2022-10-22T03:30:48;17.63;;;12.95;;
64297;SDS011;50639;53.270;7.956;2022-10-22T03:33:13;20.70;;;12.07;;
64297;SDS011;50639;53.270;7.956;2022-10-22T03:35:41;21.48;;;14.32;;
64297;SDS011;50639;53.270;7.956;2022-10-22T03:38:08;17.60;;;11.75;;
64297;SDS011;50639;53.270;7.956;2022-10-22T03:40:34;22.67;;;12.05;;
64297;SDS011;50639;53.270;7.956;2022-10-22T03:42:59;22.00;;;12.55;;
64297;SDS011;50639;53.270;7.956;2022-10-22T03:45:24;20.27;;;13.13;;
64297;SDS011;50639;53.270;7.956;2022-10-22T03:47:49;20.33;;;12.13;;
64297;SDS011;50639;53.270;7.956;2022-10-22T03:50:15;16.83;;;11.63;;
64297;SDS011;50639;53.270;7.956;2022-10-22T03:52:41;18.33;;;12.02;;
64297;SDS011;50639;53.270;7.956;2022-10-22T03:55:06;20.70;;;11.43;;
64297;SDS011;50639;53.270;7.956;2022-10-22T03:57:32;17.30;;;11.57;;
64297;SDS011;50639;53.270;7.956;2022-10-22T03:59:57;17.27;;;11.10;;
64297;SDS011;50639;53.270;7.956;2022-10-22T04:02:22;15.50;;;10.65;;
64297;SDS011;50639;53.270;7.956;2022-10-22T04:04:48;20.98;;;10.63;;
64297;SDS011;50639;53.270;7.956;2022-10-22T04:07:13;38.17;;;11.23;;
64297;SDS011;50639;53.270;7.956;2022-10-22T04:09:38;97.05;;;11.35;;
64297;SDS011;50639;53.270;7.956;2022-10-22T04:12:04;35.57;;;11.00;;
64297;SDS011;50639;53.270;7.956;2022-10-22T04:14:31;133.35;;;10.93;;
64297;SDS011;50639;53.270;7.956;2022-10-22T04:16:57;104.47;;;12.93;;
64297;SDS011;50639;53.270;7.956;2022-10-22T04:19:22;24.70;;;11.90;;
64297;SDS011;50639;53.270;7.956;2022-10-22T04:21:47;18.88;;;12.15;;
64297;SDS011;50639;53.270;7.956;2022-10-22T04:24:13;18.60;;;11.57;;
64297;SDS011;50639;53.270;7.956;2022-10-22T04:26:38;18.70;;;10.10;;
64297;SDS011;50639;53.270;7.956;2022-10-22T04:29:05;18.17;;;10.63;;
64297;SDS011;50639;53.270;7.956;2022-10-22T04:31:30;25.73;;;12.95;;
64297;SDS011;50639;53.270;7.956;2022-10-22T04:33:56;22.77;;;13.45;;
64297;SDS011;50639;53.270;7.956;2022-10-22T04:36:22;22.25;;;12.05;;
64297;SDS011;50639;53.270;7.956;2022-10-22T04:38:51;14.68;;;10.95;;
64297;SDS011;50639;53.270;7.956;2022-10-22T04:41:17;18.70;;;11.45;;
64297;SDS011;50639;53.270;7.956;2022-10-22T04:43:43;18.00;;;11.15;;
64297;SDS011;50639;53.270;7.956;2022-10-22T04:46:09;20.67;;;12.32;;
64297;SDS011;50639;53.270;7.956;2022-10-22T04:48:35;16.67;;;11.85;;
64297;SDS011;50639;53.270;7.956;2022-10-22T04:51:01;25.40;;;11.02;;
64297;SDS011;50639;53.270;7.956;2022-10-22T04:53:26;16.63;;;11.68;;
64297;SDS011;50639;53.270;7.956;2022-10-22T04:55:52;17.58;;;10.70;;
64297;SDS011;50639;53.270;7.956;2022-10-22T04:58:17;18.52;;;12.23;;
64297;SDS011;50639;53.270;7.956;2022-10-22T05:00:42;31.50;;;10.45;;
64297;SDS011;50639;53.270;7.956;2022-10-22T05:03:08;15.10;;;9.87;;
64297;SDS011;50639;53.270;7.956;2022-10-22T05:05:33;18.00;;;11.95;;
64297;SDS011;50639;53.270;7.956;2022-10-22T05:07:58;21.70;;;12.80;;
64297;SDS011;50639;53.270;7.956;2022-10-22T05:10:23;20.67;;;12.30;;
64297;SDS011;50639;53.270;7.956;2022-10-22T05:12:49;19.77;;;12.13;;
64297;SDS011;50639;53.270;7.956;2022-10-22T05:15:15;23.63;;;12.45;;
64297;SDS011;50639;53.270;7.956;2022-10-22T05:17:40;22.70;;;12.30;;
64297;SDS011;50639;53.270;7.956;2022-10-22T05:20:06;18.63;;;11.65;;
64297;SDS011;50639;53.270;7.956;2022-10-22T05:22:32;17.05;;;11.40;;
64297;SDS011;50639;53.270;7.956;2022-10-22T05:24:58;16.27;;;10.73;;
64297;SDS011;50639;53.270;7.956;2022-10-22T05:27:24;19.85;;;12.23;;
64297;SDS011;50639;53.270;7.956;2022-10-22T05:29:49;23.60;;;12.80;;
64297;SDS011;50639;53.270;7.956;2022-10-22T05:32:14;18.65;;;12.68;;
64297;SDS011;50639;53.270;7.956;2022-10-22T05:34:40;21.87;;;15.57;;
64297;SDS011;50639;53.270;7.956;2022-10-22T05:37:05;25.90;;;14.27;;
64297;SDS011;50639;53.270;7.956;2022-10-22T05:39:31;22.88;;;13.43;;
64297;SDS011;50639;53.270;7.956;2022-10-22T05:42:01;19.23;;;14.73;;
64297;SDS011;50639;53.270;7.956;2022-10-22T05:44:26;23.13;;;12.57;;
64297;SDS011;50639;53.270;7.956;2022-10-22T05:46:51;20.48;;;11.82;;
64297;SDS011;50639;53.270;7.956;2022-10-22T05:49:17;18.57;;;11.23;;
64297;SDS011;50639;53.270;7.956;2022-10-22T05:51:42;17.75;;;12.00;;
64297;SDS011;50639;53.270;7.956;2022-10-22T05:54:07;18.58;;;11.98;;
64297;SDS011;50639;53.270;7.956;2022-10-22T05:56:35;16.25;;;10.77;;
64297;SDS011;50639;53.270;7.956;2022-10-22T05:59:01;18.45;;;10.73;;
64297;SDS011;50639;53.270;7.956;2022-10-22T06:01:27;24.67;;;12.20;;
64297;SDS011;50639;53.270;7.956;2022-10-22T06:03:54;14.98;;;10.90;;
64297;SDS011;50639;53.270;7.956;2022-10-22T06:06:24;17.50;;;11.60;;
64297;SDS011;50639;53.270;7.956;2022-10-22T06:08:59;13.77;;;10.57;;
64297;SDS011;50639;53.270;7.956;2022-10-22T06:11:25;16.52;;;10.60;;
64297;SDS011;50639;53.270;7.956;2022-10-22T06:13:50;17.17;;;10.73;;
64297;SDS011;50639;53.270;7.956;2022-10-22T06:16:16;18.63;;;10.57;;
64297;SDS011;50639;53.270;7.956;2022-10-22T06:18:43;14.48;;;9.70;;
64297;SDS011;50639;53.270;7.956;2022-10-22T06:21:10;18.77;;;10.85;;
64297;SDS011;50639;53.270;7.956;2022-10-22T06:23:36;16.60;;;10.47;;
64297;SDS011;50639;53.270;7.956;2022-10-22T06:26:01;17.02;;;10.93;;
64297;SDS011;50639;53.270;7.956;2022-10-22T06:28:27;24.92;;;10.88;;
64297;SDS011;50639;53.270;7.956;2022-10-22T06:30:53;19.23;;;12.13;;
64297;SDS011;50639;53.270;7.956;2022-10-22T06:33:18;34.97;;;11.13;;
64297;SDS011;50639;53.270;7.956;2022-10-22T06:35:43;25.08;;;9.95;;
64297;SDS011;50639;53.270;7.956;2022-10-22T06:38:09;24.38;;;13.38;;
64297;SDS011;50639;53.270;7.956;2022-10-22T06:40:35;27.88;;;13.73;;
64297;SDS011;50639;53.270;7.956;2022-10-22T06:43:00;23.67;;;14.60;;
64297;SDS011;50639;53.270;7.956;2022-10-22T06:45:25;27.92;;;15.48;;
64297;SDS011;50639;53.270;7.956;2022-10-22T06:47:50;23.67;;;16.92;;
64297;SDS011;50639;53.270;7.956;2022-10-22T06:50:16;27.65;;;16.48;;
64297;SDS011;50639;53.270;7.956;2022-10-22T06:52:41;26.65;;;15.52;;
64297;SDS011;50639;53.270;7.956;2022-10-22T06:55:07;29.40;;;16.27;;
64297;SDS011;50639;53.270;7.956;2022-10-22T06:57:32;30.70;;;17.05;;
64297;SDS011;50639;53.270;7.956;2022-10-22T06:59:57;37.28;;;19.75;;
64297;SDS011;50639;53.270;7.956;2022-10-22T07:02:23;26.75;;;17.52;;
64297;SDS011;50639;53.270;7.956;2022-10-22T07:04:48;33.85;;;18.42;;
64297;SDS011;50639;53.270;7.956;2022-10-22T07:07:13;28.73;;;18.80;;
64297;SDS011;50639;53.270;7.956;2022-10-22T07:09:39;29.42;;;18.40;;
64297;SDS011;50639;53.270;7.956;2022-10-22T07:12:04;34.88;;;18.42;;
64297;SDS011;50639;53.270;7.956;2022-10-22T07:14:30;31.50;;;17.77;;
64297;SDS011;50639;53.270;7.956;2022-10-22T07:16:55;28.85;;;17.17;;
64297;SDS011;50639;53.270;7.956;2022-10-22T07:19:21;25.27;;;15.55;;
64297;SDS011;50639;53.270;7.956;2022-10-22T07:21:46;25.33;;;15.25;;
64297;SDS011;50639;53.270;7.956;2022-10-22T07:24:11;26.90;;;14.50;;
64297;SDS011;50639;53.270;7.956;2022-10-22T07:26:36;24.65;;;15.35;;
64297;SDS011;50639;53.270;7.956;2022-10-22T07:29:03;31.88;;;16.67;;
64297;SDS011;50639;53.270;7.956;2022-10-22T07:31:28;24.15;;;14.88;;
64297;SDS011;50639;53.270;7.956;2022-10-22T07:33:54;26.55;;;14.80;;
64297;SDS011;50639;53.270;7.956;2022-10-22T07:36:19;33.08;;;16.08;;
64297;SDS011;50639;53.270;7.956;2022-10-22T07:38:48;30.58;;;15.20;;
64297;SDS011;50639;53.270;7.956;2022-10-22T07:41:17;28.27;;;15.25;;
64297;SDS011;50639;53.270;7.956;2022-10-22T07:43:42;29.23;;;15.82;;
64297;SDS011;50639;53.270;7.956;2022-10-22T07:46:07;30.23;;;15.80;;
64297;SDS011;50639;53.270;7.956;2022-10-22T07:48:33;33.88;;;18.90;;
64297;SDS011;50639;53.270;7.956;2022-10-22T07:50:59;26.40;;;16.75;;
64297;SDS011;50639;53.270;7.956;2022-10-22T07:53:24;36.45;;;16.23;;
64297;SDS011;50639;53.270;7.956;2022-10-22T07:55:50;44.47;;;18.95;;
64297;SDS011;50639;53.270;7.956;2022-10-22T07:58:16;34.92;;;17.02;;
64297;SDS011;50639;53.270;7.956;2022-10-22T08:00:41;33.15;;;16.52;;
64297;SDS011;50639;53.270;7.956;2022-10-22T08:03:07;34.08;;;18.02;;
64297;SDS011;50639;53.270;7.956;2022-10-22T08:05:33;30.95;;;18.42;;
64297;SDS011;50639;53.270;7.956;2022-10-22T08:07:58;38.97;;;19.60;;
64297;SDS011;50639;53.270;7.956;2022-10-22T08:10:24;34.20;;;17.13;;
64297;SDS011;50639;53.270;7.956;2022-10-22T08:12:49;30.97;;;17.70;;
64297;SDS011;50639;53.270;7.956;2022-10-22T08:15:14;31.93;;;16.77;;
64297;SDS011;50639;53.270;7.956;2022-10-22T08:17:39;36.13;;;18.05;;
64297;SDS011;50639;53.270;7.956;2022-10-22T08:20:05;33.58;;;19.40;;
64297;SDS011;50639;53.270;7.956;2022-10-22T08:22:30;32.55;;;17.73;;
64297;SDS011;50639;53.270;7.956;2022-10-22T08:24:56;33.67;;;17.17;;
64297;SDS011;50639;53.270;7.956;2022-10-22T08:27:21;32.13;;;16.25;;
64297;SDS011;50639;53.270;7.956;2022-10-22T08:29:46;34.53;;;15.57;;
64297;SDS011;50639;53.270;7.956;2022-10-22T08:32:12;28.95;;;15.77;;
64297;SDS011;50639;53.270;7.956;2022-10-22T08:34:37;29.40;;;16.10;;
64297;SDS011;50639;53.270;7.956;2022-10-22T08:37:02;32.30;;;16.05;;
64297;SDS011;50639;53.270;7.956;2022-10-22T08:39:28;31.92;;;16.50;;
64297;SDS011;50639;53.270;7.956;2022-10-22T08:41:57;27.27;;;14.93;;
64297;SDS011;50639;53.270;7.956;2022-10-22T08:44:47;28.15;;;13.43;;
64297;SDS011;50639;53.270;7.956;2022-10-22T08:49:35;25.57;;;13.33;;
64297;SDS011;50639;53.270;7.956;2022-10-22T08:52:01;24.40;;;11.27;;
64297;SDS011;50639;53.270;7.956;2022-10-22T08:54:40;22.42;;;11.23;;
64297;SDS011;50639;53.270;7.956;2022-10-22T08:59:36;16.77;;;10.53;;
64297;SDS011;50639;53.270;7.956;2022-10-22T09:02:04;22.45;;;10.25;;
64297;SDS011;50639;53.270;7.956;2022-10-22T09:04:35;19.23;;;8.93;;
64297;SDS011;50639;53.270;7.956;2022-10-22T09:07:02;18.05;;;9.77;;
64297;SDS011;50639;53.270;7.956;2022-10-22T09:09:33;17.75;;;9.10;;
64297;SDS011;50639;53.270;7.956;2022-10-22T09:12:00;16.08;;;7.85;;
64297;SDS011;50639;53.270;7.956;2022-10-22T09:14:26;20.10;;;8.77;;
64297;SDS011;50639;53.270;7.956;2022-10-22T09:19:24;21.33;;;8.23;;
64297;SDS011;50639;53.270;7.956;2022-10-22T09:22:01;17.88;;;7.40;;
64297;SDS011;50639;53.270;7.956;2022-10-22T09:26:55;16.77;;;7.07;;
64297;SDS011;50639;53.270;7.956;2022-10-22T09:29:22;18.80;;;7.47;;
64297;SDS011;50639;53.270;7.956;2022-10-22T09:31:48;14.13;;;6.53;;
64297;SDS011;50639;53.270;7.956;2022-10-22T09:34:14;17.97;;;6.17;;
64297;SDS011;50639;53.270;7.956;2022-10-22T09:36:40;16.92;;;6.65;;
64297;SDS011;50639;53.270;7.956;2022-10-22T09:39:10;15.77;;;6.57;;
64297;SDS011;50639;53.270;7.956;2022-10-22T09:41:45;13.80;;;6.40;;
64297;SDS011;50639;53.270;7.956;2022-10-22T09:44:11;14.80;;;5.90;;
64297;SDS011;50639;53.270;7.956;2022-10-22T09:46:37;16.17;;;6.43;;
64297;SDS011;50639;53.270;7.956;2022-10-22T09:49:40;14.02;;;5.50;;
64297;SDS011;50639;53.270;7.956;2022-10-22T09:51:59;16.35;;;5.82;;
64297;SDS011;50639;53.270;7.956;2022-10-22T09:54:47;19.88;;;5.50;;
64297;SDS011;50639;53.270;7.956;2022-10-22T09:57:19;12.13;;;5.15;;
64297;SDS011;50639;53.270;7.956;2022-10-22T09:59:47;20.95;;;5.53;;
64297;SDS011;50639;53.270;7.956;2022-10-22T10:02:14;15.23;;;5.97;;
64297;SDS011;50639;53.270;7.956;2022-10-22T10:04:41;13.18;;;5.18;;
64297;SDS011;50639;53.270;7.956;2022-10-22T10:07:19;17.42;;;5.40;;
64297;SDS011;50639;53.270;7.956;2022-10-22T10:09:45;16.00;;;4.70;;
64297;SDS011;50639;53.270;7.956;2022-10-22T10:12:55;15.40;;;5.70;;
64297;SDS011;50639;53.270;7.956;2022-10-22T10:17:39;13.48;;;4.90;;
64297;SDS011;50639;53.270;7.956;2022-10-22T10:25:25;16.83;;;5.00;;
64297;SDS011;50639;53.270;7.956;2022-10-22T10:30:17;13.73;;;4.70;;
64297;SDS011;50639;53.270;7.956;2022-10-22T10:37:42;18.23;;;5.03;;
64297;SDS011;50639;53.270;7.956;2022-10-22T10:42:52;15.63;;;4.15;;
64297;SDS011;50639;53.270;7.956;2022-10-22T10:45:23;15.68;;;4.63;;
64297;SDS011;50639;53.270;7.956;2022-10-22T10:50:26;21.30;;;4.38;;
64297;SDS011;50639;53.270;7.956;2022-10-22T10:52:58;11.63;;;3.40;;
64297;SDS011;50639;53.270;7.956;2022-10-22T10:55:30;16.02;;;4.50;;
64297;SDS011;50639;53.270;7.956;2022-10-22T10:58:02;23.17;;;4.70;;
64297;SDS011;50639;53.270;7.956;2022-10-22T11:00:31;10.40;;;3.55;;
64297;SDS011;50639;53.270;7.956;2022-10-22T11:07:54;14.85;;;4.38;;
64297;SDS011;50639;53.270;7.956;2022-10-22T11:12:50;23.05;;;5.10;;
64297;SDS011;50639;53.270;7.956;2022-10-22T11:15:32;14.63;;;4.50;;
64297;SDS011;50639;53.270;7.956;2022-10-22T11:18:13;16.42;;;5.32;;
64297;SDS011;50639;53.270;7.956;2022-10-22T11:23:31;14.80;;;6.05;;
64297;SDS011;50639;53.270;7.956;2022-10-22T11:25:58;18.17;;;8.90;;
64297;SDS011;50639;53.270;7.956;2022-10-22T11:28:31;20.38;;;6.40;;
64297;SDS011;50639;53.270;7.956;2022-10-22T11:31:00;17.73;;;5.55;;
64297;SDS011;50639;53.270;7.956;2022-10-22T11:33:27;17.70;;;4.90;;
64297;SDS011;50639;53.270;7.956;2022-10-22T11:35:55;16.80;;;5.00;;
64297;SDS011;50639;53.270;7.956;2022-10-22T11:38:22;13.90;;;4.57;;
64297;SDS011;50639;53.270;7.956;2022-10-22T11:43:28;10.63;;;4.55;;
64297;SDS011;50639;53.270;7.956;2022-10-22T11:46:03;23.20;;;4.93;;
64297;SDS011;50639;53.270;7.956;2022-10-22T11:48:35;16.80;;;4.30;;
64297;SDS011;50639;53.270;7.956;2022-10-22T11:51:02;15.05;;;4.80;;
64297;SDS011;50639;53.270;7.956;2022-10-22T11:53:31;16.67;;;4.25;;
64297;SDS011;50639;53.270;7.956;2022-10-22T11:55:57;12.88;;;4.70;;
64297;SDS011;50639;53.270;7.956;2022-10-22T12:01:39;16.65;;;4.68;;
64297;SDS011;50639;53.270;7.956;2022-10-22T12:03:51;13.43;;;4.53;;
64297;SDS011;50639;53.270;7.956;2022-10-22T12:06:18;15.57;;;5.05;;
64297;SDS011;50639;53.270;7.956;2022-10-22T12:11:19;14.98;;;4.50;;
64297;SDS011;50639;53.270;7.956;2022-10-22T12:19:32;16.75;;;4.55;;
64297;SDS011;50639;53.270;7.956;2022-10-22T12:21:55;16.30;;;3.88;;
64297;SDS011;50639;53.270;7.956;2022-10-22T12:24:22;15.85;;;4.40;;
64297;SDS011;50639;53.270;7.956;2022-10-22T12:26:47;19.80;;;4.90;;
64297;SDS011;50639;53.270;7.956;2022-10-22T12:29:17;15.07;;;4.88;;
64297;SDS011;50639;53.270;7.956;2022-10-22T12:31:43;14.07;;;4.22;;
64297;SDS011;50639;53.270;7.956;2022-10-22T12:34:12;9.87;;;3.50;;
64297;SDS011;50639;53.270;7.956;2022-10-22T12:36:38;8.85;;;3.75;;
64297;SDS011;50639;53.270;7.956;2022-10-22T12:39:08;10.53;;;3.87;;
64297;SDS011;50639;53.270;7.956;2022-10-22T12:41:36;14.43;;;4.00;;
64297;SDS011;50639;53.270;7.956;2022-10-22T12:44:02;12.67;;;4.30;;
64297;SDS011;50639;53.270;7.956;2022-10-22T12:46:28;10.93;;;4.10;;
64297;SDS011;50639;53.270;7.956;2022-10-22T12:48:54;16.92;;;4.55;;
64297;SDS011;50639;53.270;7.956;2022-10-22T12:51:23;16.70;;;4.18;;
64297;SDS011;50639;53.270;7.956;2022-10-22T12:53:49;8.35;;;3.63;;
64297;SDS011;50639;53.270;7.956;2022-10-22T12:56:20;13.52;;;4.30;;
64297;SDS011;50639;53.270;7.956;2022-10-22T12:58:48;11.43;;;4.05;;
64297;SDS011;50639;53.270;7.956;2022-10-22T13:01:16;11.70;;;3.97;;
64297;SDS011;50639;53.270;7.956;2022-10-22T13:03:42;12.63;;;4.00;;
64297;SDS011;50639;53.270;7.956;2022-10-22T13:08:43;16.50;;;4.32;;
64297;SDS011;50639;53.270;7.956;2022-10-22T13:11:09;15.93;;;4.25;;
64297;SDS011;50639;53.270;7.956;2022-10-22T13:16:16;10.20;;;4.13;;
64297;SDS011;50639;53.270;7.956;2022-10-22T13:18:42;12.82;;;3.88;;
64297;SDS011;50639;53.270;7.956;2022-10-22T13:21:28;12.68;;;4.40;;
64297;SDS011;50639;53.270;7.956;2022-10-22T13:23:58;9.80;;;3.80;;
64297;SDS011;50639;53.270;7.956;2022-10-22T13:26:32;13.35;;;4.22;;
64297;SDS011;50639;53.270;7.956;2022-10-22T13:28:58;15.93;;;4.63;;
64297;SDS011;50639;53.270;7.956;2022-10-22T13:31:26;15.43;;;4.00;;
64297;SDS011;50639;53.270;7.956;2022-10-22T13:33:55;12.98;;;4.07;;
64297;SDS011;50639;53.270;7.956;2022-10-22T13:36:22;14.98;;;3.83;;
64297;SDS011;50639;53.270;7.956;2022-10-22T13:38:48;12.40;;;3.63;;
64297;SDS011;50639;53.270;7.956;2022-10-22T13:41:24;13.23;;;3.95;;
64297;SDS011;50639;53.270;7.956;2022-10-22T13:43:50;14.13;;;3.83;;
64297;SDS011;50639;53.270;7.956;2022-10-22T13:46:16;8.20;;;3.30;;
64297;SDS011;50639;53.270;7.956;2022-10-22T13:48:42;20.63;;;4.60;;
64297;SDS011;50639;53.270;7.956;2022-10-22T13:51:41;14.43;;;4.70;;
64297;SDS011;50639;53.270;7.956;2022-10-22T13:53:59;23.10;;;4.15;;
64297;SDS011;50639;53.270;7.956;2022-10-22T13:56:24;14.00;;;4.00;;
64297;SDS011;50639;53.270;7.956;2022-10-22T13:58:50;14.20;;;4.18;;
64297;SDS011;50639;53.270;7.956;2022-10-22T14:01:17;15.13;;;4.00;;
64297;SDS011;50639;53.270;7.956;2022-10-22T14:03:44;9.57;;;3.60;;
64297;SDS011;50639;53.270;7.956;2022-10-22T14:06:11;12.73;;;3.72;;
64297;SDS011;50639;53.270;7.956;2022-10-22T14:11:02;17.30;;;4.30;;
64297;SDS011;50639;53.270;7.956;2022-10-22T14:13:27;15.07;;;3.75;;
64297;SDS011;50639;53.270;7.956;2022-10-22T14:15:52;15.60;;;4.35;;
64297;SDS011;50639;53.270;7.956;2022-10-22T14:18:19;12.95;;;3.53;;
64297;SDS011;50639;53.270;7.956;2022-10-22T14:20:50;8.52;;;3.45;;
64297;SDS011;50639;53.270;7.956;2022-10-22T14:23:18;35.57;;;20.13;;
64297;SDS011;50639;53.270;7.956;2022-10-22T14:25:43;10.15;;;3.67;;
64297;SDS011;50639;53.270;7.956;2022-10-22T14:28:09;12.90;;;4.22;;
64297;SDS011;50639;53.270;7.956;2022-10-22T14:30:34;10.25;;;3.65;;
64297;SDS011;50639;53.270;7.956;2022-10-22T14:32:59;13.30;;;4.07;;
64297;SDS011;50639;53.270;7.956;2022-10-22T14:35:25;14.50;;;3.97;;
64297;SDS011;50639;53.270;7.956;2022-10-22T14:37:50;10.65;;;4.10;;
64297;SDS011;50639;53.270;7.956;2022-10-22T14:40:18;15.60;;;4.00;;
64297;SDS011;50639;53.270;7.956;2022-10-22T14:45:26;11.90;;;4.30;;
64297;SDS011;50639;53.270;7.956;2022-10-22T14:47:52;11.75;;;4.40;;
64297;SDS011;50639;53.270;7.956;2022-10-22T14:50:20;12.32;;;4.65;;
64297;SDS011;50639;53.270;7.956;2022-10-22T14:52:46;10.20;;;3.50;;
64297;SDS011;50639;53.270;7.956;2022-10-22T14:55:12;8.35;;;3.40;;
64297;SDS011;50639;53.270;7.956;2022-10-22T14:57:37;7.25;;;3.03;;
64297;SDS011;50639;53.270;7.956;2022-10-22T15:00:07;9.60;;;3.70;;
64297;SDS011;50639;53.270;7.956;2022-10-22T15:02:33;11.27;;;3.60;;
64297;SDS011;50639;53.270;7.956;2022-10-22T15:04:58;9.40;;;3.35;;
64297;SDS011;50639;53.270;7.956;2022-10-22T15:07:23;9.98;;;4.20;;
64297;SDS011;50639;53.270;7.956;2022-10-22T15:09:49;9.37;;;4.10;;
64297;SDS011;50639;53.270;7.956;2022-10-22T15:12:14;18.33;;;4.53;;
64297;SDS011;50639;53.270;7.956;2022-10-22T15:14:40;17.08;;;5.03;;
64297;SDS011;50639;53.270;7.956;2022-10-22T15:17:05;11.00;;;4.87;;
64297;SDS011;50639;53.270;7.956;2022-10-22T15:19:30;13.30;;;5.63;;
64297;SDS011;50639;53.270;7.956;2022-10-22T15:21:55;14.23;;;4.73;;
64297;SDS011;50639;53.270;7.956;2022-10-22T15:24:21;10.30;;;4.43;;
64297;SDS011;50639;53.270;7.956;2022-10-22T15:26:46;12.07;;;4.10;;
64297;SDS011;50639;53.270;7.956;2022-10-22T15:29:11;16.27;;;4.80;;
64297;SDS011;50639;53.270;7.956;2022-10-22T15:31:55;10.27;;;4.28;;
64297;SDS011;50639;53.270;7.956;2022-10-22T15:34:28;9.98;;;4.45;;
64297;SDS011;50639;53.270;7.956;2022-10-22T15:36:55;12.02;;;4.78;;
64297;SDS011;50639;53.270;7.956;2022-10-22T15:39:21;10.57;;;4.88;;
64297;SDS011;50639;53.270;7.956;2022-10-22T15:41:47;16.80;;;4.90;;
64297;SDS011;50639;53.270;7.956;2022-10-22T15:44:16;16.63;;;4.85;;
64297;SDS011;50639;53.270;7.956;2022-10-22T15:46:41;15.93;;;5.40;;
64297;SDS011;50639;53.270;7.956;2022-10-22T15:49:07;12.75;;;4.97;;
64297;SDS011;50639;53.270;7.956;2022-10-22T15:51:32;14.63;;;5.13;;
64297;SDS011;50639;53.270;7.956;2022-10-22T15:53:57;16.40;;;5.72;;
64297;SDS011;50639;53.270;7.956;2022-10-22T15:56:23;24.90;;;9.70;;
64297;SDS011;50639;53.270;7.956;2022-10-22T15:58:53;37.72;;;7.25;;